Time;durP1;ratioP1;P1;durP2;ratioP2;P2;SDS_P1;SDS_P2;PMS_P1;PMS_P2;Temp;Humidity;BMP_temperature;BMP_pressure;BME280_temperature;BME280_humidity;BME280_pressure;Samples;Min_cycle;Max_cycle;Signal;HPM_P1;HPM_P2
2023/02/03 00:00:26;;;;;;;1.67;1.57;;;;;;;5.18;100.00;152693.09;4945084;28;20465;-88
2023/02/03 00:02:52;;;;;;;1.27;0.80;;;;;;;5.20;100.00;152696.94;4933174;28;20578;-87
2023/02/03 00:05:19;;;;;;;1.40;1.20;;;;;;;5.16;100.00;152686.66;4935729;29;20526;-88
2023/02/03 00:07:49;;;;;;;1.67;0.90;;;;;;;5.14;100.00;152682.78;4937816;28;20536;-88
2023/02/03 00:10:20;;;;;;;1.27;0.90;;;;;;;5.09;100.00;152668.59;4941215;29;20865;-88
2023/02/03 00:12:47;;;;;;;1.70;1.03;;;;;;;5.06;100.00;152660.84;4936404;29;21005;-88
2023/02/03 00:15:13;;;;;;;1.50;1.13;;;;;;;5.07;100.00;152663.44;4950669;28;20538;-88
2023/02/03 00:17:40;;;;;;;1.47;1.10;;;;;;;5.07;100.00;152664.75;4934751;28;20484;-87
2023/02/03 00:20:07;;;;;;;1.43;0.90;;;;;;;5.05;100.00;152658.31;4946940;28;20473;-88
2023/02/03 00:22:34;;;;;;;1.90;1.20;;;;;;;5.04;100.00;152657.00;4952297;29;20464;-88
2023/02/03 00:25:02;;;;;;;1.20;1.00;;;;;;;5.06;100.00;152660.84;4952984;28;20485;-88
2023/02/03 00:27:28;;;;;;;1.30;1.00;;;;;;;5.05;100.00;152658.31;4934973;28;20456;-88
2023/02/03 00:29:55;;;;;;;1.70;0.90;;;;;;;5.12;100.00;152677.63;4953096;28;20454;-88
2023/02/03 00:32:22;;;;;;;1.50;0.80;;;;;;;5.04;100.00;152657.00;4947013;28;20500;-88
2023/02/03 00:34:48;;;;;;;1.70;0.87;;;;;;;5.12;100.00;152676.31;4954508;28;20443;-88
2023/02/03 00:37:15;;;;;;;2.27;1.27;;;;;;;5.07;100.00;152664.75;4937720;29;20452;-88
2023/02/03 00:39:42;;;;;;;1.90;0.90;;;;;;;5.09;100.00;152669.88;4918289;29;20970;-88
2023/02/03 00:42:10;;;;;;;1.07;0.80;;;;;;;5.06;100.00;152660.84;4935708;29;20553;-87
2023/02/03 00:44:36;;;;;;;1.67;0.80;;;;;;;5.02;100.00;152651.84;4934064;28;20584;-88
2023/02/03 00:47:03;;;;;;;1.03;0.77;;;;;;;5.01;100.00;152647.97;4957520;28;20552;-88
2023/02/03 00:49:30;;;;;;;1.87;1.03;;;;;;;5.05;100.00;152658.31;4934353;29;20453;-87
2023/02/03 00:51:57;;;;;;;1.80;1.00;;;;;;;5.03;100.00;152653.16;4950535;28;20772;-88
2023/02/03 00:54:23;;;;;;;1.50;1.03;;;;;;;5.00;100.00;152646.72;4964280;28;20469;-88
2023/02/03 00:56:50;;;;;;;1.93;0.90;;;;;;;5.04;100.00;152657.00;4924150;29;20514;-87
2023/02/03 00:59:18;;;;;;;2.00;0.93;;;;;;;5.04;100.00;152655.69;4945682;29;20456;-88
2023/02/03 01:01:45;;;;;;;1.20;0.70;;;;;;;5.08;100.00;152667.34;4968570;28;20502;-88
2023/02/03 01:04:11;;;;;;;1.50;1.10;;;;;;;5.09;100.00;152668.59;4950560;28;21037;-87
2023/02/03 01:06:40;;;;;;;1.20;0.80;;;;;;;5.07;100.00;152663.44;4935468;29;20444;-88
2023/02/03 01:09:07;;;;;;;1.10;0.70;;;;;;;5.03;100.00;152653.16;4951831;28;20542;-89
2023/02/03 01:11:34;;;;;;;1.00;0.70;;;;;;;5.05;100.00;152659.59;4971960;28;20559;-87
2023/02/03 01:14:00;;;;;;;2.30;1.37;;;;;;;5.03;100.00;152653.16;4951903;28;20530;-88
2023/02/03 01:16:34;;;;;;;1.20;1.00;;;;;;;5.05;100.00;152658.31;4943051;29;20815;-88
2023/02/03 01:19:01;;;;;;;1.50;0.80;;;;;;;5.05;100.00;152659.59;4956987;28;20804;-88
2023/02/03 01:21:28;;;;;;;2.00;1.07;;;;;;;5.00;100.00;152646.72;4922672;28;20550;-87
2023/02/03 01:23:55;;;;;;;1.20;0.87;;;;;;;5.04;100.00;152655.69;4925397;29;20467;-88
2023/02/03 01:26:23;;;;;;;2.57;1.20;;;;;;;5.05;100.00;152659.59;4921606;29;20689;-88
2023/02/03 01:28:51;;;;;;;3.83;1.20;;;;;;;5.07;100.00;152663.44;4932066;29;20519;-88
2023/02/03 01:31:21;;;;;;;1.20;0.87;;;;;;;5.02;100.00;152650.56;4951605;28;20469;-88
2023/02/03 01:33:49;;;;;;;1.50;1.17;;;;;;;4.99;100.00;152644.13;4955989;28;20457;-87
2023/02/03 01:36:17;;;;;;;1.60;1.03;;;;;;;5.02;100.00;152651.84;4965957;28;20533;-88
2023/02/03 01:38:44;;;;;;;1.50;1.00;;;;;;;5.01;100.00;152647.97;4940057;28;20503;-87
2023/02/03 01:41:17;;;;;;;1.90;0.97;;;;;;;4.98;100.00;152640.28;4939827;28;20518;-88
2023/02/03 01:43:49;;;;;;;1.90;1.03;;;;;;;5.03;100.00;152653.16;4953163;28;20563;-88
2023/02/03 01:46:24;;;;;;;1.50;1.00;;;;;;;4.96;100.00;152636.38;4936041;29;20485;-88
2023/02/03 01:48:54;;;;;;;1.37;0.90;;;;;;;4.96;100.00;152636.38;4928193;28;20455;-87
2023/02/03 01:51:23;;;;;;;1.00;0.77;;;;;;;4.95;100.00;152632.53;4938426;29;20462;-88
2023/02/03 01:53:51;;;;;;;1.80;1.50;;;;;;;4.97;100.00;152638.97;4964472;28;20501;-88
2023/02/03 01:56:18;;;;;;;1.40;1.00;;;;;;;4.95;100.00;152632.53;4984439;28;20668;-88
2023/02/03 01:58:47;;;;;;;1.40;0.90;;;;;;;4.97;100.00;152637.69;4970056;28;20498;-88
2023/02/03 02:01:13;;;;;;;1.30;1.10;;;;;;;4.97;100.00;152638.97;4971077;28;20986;-87
2023/02/03 02:03:42;;;;;;;1.73;1.13;;;;;;;4.99;100.00;152644.13;4957325;28;20879;-88
2023/02/03 02:06:11;;;;;;;1.50;1.23;;;;;;;4.98;100.00;152641.53;4964609;28;20481;-88
2023/02/03 02:08:41;;;;;;;2.13;1.40;;;;;;;4.93;100.00;152629.94;4972878;28;20476;-88
2023/02/03 02:11:08;;;;;;;2.77;1.80;;;;;;;4.93;100.00;152629.94;4960672;28;20465;-88
2023/02/03 02:13:35;;;;;;;2.27;1.60;;;;;;;4.99;100.00;152644.13;4955375;28;20468;-88
2023/02/03 02:16:07;;;;;;;2.07;1.50;;;;;;;5.02;100.00;152650.56;4955122;28;20541;-88
2023/02/03 02:18:43;;;;;;;1.97;1.60;;;;;;;5.00;100.00;152645.41;4971759;28;20450;-88
2023/02/03 02:21:46;;;;;;;2.40;1.87;;;;;;;4.99;100.00;152642.81;4967425;28;20464;-88
2023/02/03 02:24:49;;;;;;;2.40;1.40;;;;;;;4.97;100.00;152637.69;4934563;28;20458;-88
2023/02/03 02:27:29;;;;;;;1.90;1.50;;;;;;;5.00;100.00;152645.41;4951936;28;20545;-88
2023/02/03 02:30:23;;;;;;;3.37;1.93;;;;;;;4.97;100.00;152637.69;4976867;28;21010;-88
2023/02/03 02:33:10;;;;;;;1.90;1.70;;;;;;;4.91;100.00;152624.78;4965048;28;20474;-87
2023/02/03 02:35:47;;;;;;;2.97;1.93;;;;;;;4.95;100.00;152632.53;4938198;28;20470;-88
2023/02/03 02:38:22;;;;;;;1.90;1.70;;;;;;;4.93;100.00;152629.94;4972504;28;21076;-88
2023/02/03 02:40:53;;;;;;;2.77;1.60;;;;;;;4.88;100.00;152615.75;4960936;28;20877;-88
2023/02/03 02:43:21;;;;;;;1.83;1.50;;;;;;;4.89;100.00;152619.66;4941981;28;20477;-88
2023/02/03 02:45:50;;;;;;;2.43;1.80;;;;;;;4.87;100.00;152613.22;4956629;28;20487;-88
2023/02/03 02:48:22;;;;;;;2.10;1.40;;;;;;;4.84;100.00;152606.72;4958540;28;20870;-88
2023/02/03 02:50:52;;;;;;;2.00;1.60;;;;;;;4.87;100.00;152614.47;4970347;28;20457;-88
2023/02/03 02:53:22;;;;;;;2.10;1.80;;;;;;;4.84;100.00;152606.72;4953182;28;20467;-88
2023/02/03 02:55:51;;;;;;;2.27;1.50;;;;;;;4.78;100.00;152591.28;4938094;28;20480;-87
2023/02/03 02:58:19;;;;;;;1.93;1.57;;;;;;;4.78;100.00;152591.28;4954112;28;20453;-88
2023/02/03 03:00:47;;;;;;;1.40;1.23;;;;;;;4.78;100.00;152590.00;4942683;28;20510;-87
2023/02/03 03:03:15;;;;;;;2.40;1.67;;;;;;;4.81;100.00;152597.72;4951264;28;20492;-88
2023/02/03 03:05:48;;;;;;;2.60;1.50;;;;;;;4.81;100.00;152599.03;4957963;28;20516;-88
2023/02/03 03:08:20;;;;;;;2.10;1.60;;;;;;;4.83;100.00;152604.16;4941339;28;20448;-88
2023/02/03 03:10:47;;;;;;;1.90;1.63;;;;;;;4.85;100.00;152608.03;4966820;28;20518;-88
2023/02/03 03:13:20;;;;;;;2.90;1.70;;;;;;;4.86;100.00;152611.91;4969651;28;20986;-88
2023/02/03 03:15:49;;;;;;;2.10;1.70;;;;;;;4.85;100.00;152608.03;4940824;28;20583;-88
2023/02/03 03:18:20;;;;;;;1.70;1.23;;;;;;;4.85;100.00;152609.31;4977397;28;20457;-88
2023/02/03 03:20:51;;;;;;;2.40;2.00;;;;;;;4.86;100.00;152611.91;4953196;28;21040;-88
2023/02/03 03:23:20;;;;;;;2.43;1.40;;;;;;;4.83;100.00;152604.16;4943456;28;21019;-87
2023/02/03 03:25:50;;;;;;;1.77;1.33;;;;;;;4.85;100.00;152609.31;4970772;28;20593;-88
2023/02/03 03:28:22;;;;;;;2.10;1.83;;;;;;;4.87;100.00;152614.47;4954940;28;20796;-88
2023/02/03 03:30:49;;;;;;;2.10;1.80;;;;;;;4.86;100.00;152610.63;4954727;28;20460;-88
2023/02/03 03:33:16;;;;;;;1.77;1.40;;;;;;;4.84;100.00;152605.47;4945508;28;20868;-88
2023/02/03 03:35:49;;;;;;;1.90;1.33;;;;;;;4.85;100.00;152609.31;4956396;28;20525;-87
2023/02/03 03:38:19;;;;;;;1.13;1.03;;;;;;;4.86;100.00;152611.91;4960655;28;20523;-88
2023/02/03 03:40:50;;;;;;;7.23;1.50;;;;;;;4.86;100.00;152611.91;4969556;28;20478;-88
2023/02/03 03:43:19;;;;;;;2.53;1.37;;;;;;;4.90;100.00;152622.19;4972880;28;20465;-88
2023/02/03 03:45:50;;;;;;;1.20;1.10;;;;;;;4.91;100.00;152624.78;4966275;28;20486;-88
2023/02/03 03:48:20;;;;;;;2.13;1.30;;;;;;;4.90;100.00;152620.91;4971738;28;20814;-87
2023/02/03 03:50:51;;;;;;;2.27;1.20;;;;;;;4.92;100.00;152627.34;4987243;28;20462;-88
2023/02/03 03:53:18;;;;;;;4.23;1.13;;;;;;;4.92;100.00;152627.34;4952622;28;20488;-88
2023/02/03 03:55:48;;;;;;;1.30;1.07;;;;;;;4.87;100.00;152614.47;4937762;28;20489;-87
2023/02/03 03:58:18;;;;;;;1.50;1.10;;;;;;;4.86;100.00;152610.63;4954283;28;20462;-87
2023/02/03 04:00:45;;;;;;;2.10;1.90;;;;;;;4.90;100.00;152622.19;4959700;28;20462;-88
2023/02/03 04:03:15;;;;;;;1.60;1.17;;;;;;;4.89;100.00;152619.66;4976458;28;20446;-87
2023/02/03 04:05:42;;;;;;;2.17;1.63;;;;;;;4.90;100.00;152622.19;4954677;28;20477;-88
2023/02/03 04:08:10;;;;;;;1.10;1.00;;;;;;;4.91;100.00;152624.78;4953100;28;20445;-88
2023/02/03 04:10:38;;;;;;;1.70;1.27;;;;;;;4.92;100.00;152626.09;4966768;28;20483;-88
2023/02/03 04:13:05;;;;;;;1.50;1.10;;;;;;;4.87;100.00;152613.22;4985524;28;20540;-88
2023/02/03 04:15:33;;;;;;;1.90;1.10;;;;;;;4.90;100.00;152620.91;4966257;28;20550;-88
2023/02/03 04:18:01;;;;;;;1.47;1.30;;;;;;;4.87;100.00;152613.22;4968001;28;20532;-88
2023/02/03 04:20:28;;;;;;;1.93;1.00;;;;;;;4.86;100.00;152611.91;4986570;28;20457;-88
2023/02/03 04:22:55;;;;;;;1.70;1.20;;;;;;;4.87;100.00;152614.47;4969907;28;20864;-87
2023/02/03 04:25:23;;;;;;;1.20;1.00;;;;;;;4.88;100.00;152617.06;4952772;28;20466;-88
2023/02/03 04:27:50;;;;;;;1.70;1.20;;;;;;;4.87;100.00;152614.47;4964667;28;20454;-88
2023/02/03 04:30:17;;;;;;;1.53;0.90;;;;;;;4.85;100.00;152609.31;4973853;28;20481;-87
2023/02/03 04:32:44;;;;;;;1.47;0.80;;;;;;;4.85;100.00;152609.31;4955043;28;20877;-88
2023/02/03 04:35:11;;;;;;;1.40;0.90;;;;;;;4.84;100.00;152605.47;4955482;28;20538;-88
2023/02/03 04:37:37;;;;;;;1.63;0.90;;;;;;;4.84;100.00;152606.72;4982542;28;21014;-88
2023/02/03 04:40:05;;;;;;;1.33;0.80;;;;;;;4.86;100.00;152610.63;4967110;28;20471;-88
2023/02/03 04:42:33;;;;;;;1.00;0.83;;;;;;;4.85;100.00;152609.31;4966649;28;20451;-88
2023/02/03 04:45:00;;;;;;;1.93;1.27;;;;;;;4.86;100.00;152611.91;4972292;28;20541;-88
2023/02/03 04:47:26;;;;;;;2.47;0.90;;;;;;;4.84;100.00;152606.72;4990130;28;20481;-88
2023/02/03 04:49:53;;;;;;;1.17;0.83;;;;;;;4.84;100.00;152606.72;4958759;28;20449;-88
2023/02/03 04:52:20;;;;;;;1.00;0.80;;;;;;;4.84;100.00;152605.47;4940218;28;20458;-88
2023/02/03 04:54:46;;;;;;;1.57;1.07;;;;;;;4.81;100.00;152599.03;4977814;28;20500;-88
2023/02/03 04:57:13;;;;;;;1.20;0.90;;;;;;;4.78;100.00;152590.00;4952112;28;20562;-88
2023/02/03 04:59:41;;;;;;;1.70;1.10;;;;;;;4.79;100.00;152593.84;4934825;29;20811;-88
2023/02/03 05:02:08;;;;;;;1.90;1.30;;;;;;;4.79;100.00;152593.84;4947587;28;20822;-88
2023/02/03 05:04:34;;;;;;;2.20;1.03;;;;;;;4.80;100.00;152596.44;4950481;28;21030;-89
2023/02/03 05:07:01;;;;;;;2.13;1.13;;;;;;;4.79;100.00;152593.84;4944675;28;20479;-88
2023/02/03 05:09:28;;;;;;;2.17;1.07;;;;;;;4.76;100.00;152586.16;4936401;29;20841;-88
2023/02/03 05:11:55;;;;;;;3.53;1.00;;;;;;;4.76;100.00;152586.16;4931735;29;20463;-88
2023/02/03 05:14:22;;;;;;;1.80;1.10;;;;;;;4.75;100.00;152583.56;4953131;28;20442;-86
2023/02/03 05:16:50;;;;;;;1.80;1.10;;;;;;;4.77;100.00;152588.69;4947358;29;20501;-89
2023/02/03 05:19:16;;;;;;;1.50;1.00;;;;;;;4.77;100.00;152588.69;4951740;28;20793;-89
2023/02/03 05:21:43;;;;;;;1.37;1.23;;;;;;;4.76;100.00;152584.84;4954399;28;20553;-88
2023/02/03 05:24:10;;;;;;;1.40;1.00;;;;;;;4.75;100.00;152583.56;4955215;28;20459;-89
2023/02/03 05:26:36;;;;;;;1.87;1.20;;;;;;;4.75;100.00;152583.56;4946133;29;20820;-89
2023/02/03 05:29:03;;;;;;;1.93;1.30;;;;;;;4.77;100.00;152587.41;4957404;28;20464;-88
2023/02/03 05:31:32;;;;;;;2.30;1.17;;;;;;;4.75;100.00;152583.56;4950925;28;20461;-88
2023/02/03 05:34:00;;;;;;;1.50;1.10;;;;;;;4.76;100.00;152586.16;4952922;28;20589;-88
2023/02/03 05:36:27;;;;;;;1.70;1.07;;;;;;;4.74;100.00;152579.66;4935212;28;20462;-88
2023/02/03 05:38:53;;;;;;;3.07;1.07;;;;;;;4.75;100.00;152583.56;4940719;28;20452;-88
2023/02/03 05:44:04;;;;;;;1.47;1.30;;;;;;;4.74;100.00;152579.66;4964594;28;20464;-88
2023/02/03 05:46:31;;;;;;;4.20;1.40;;;;;;;4.75;100.00;152583.56;4959369;28;20487;-89
2023/02/03 05:48:58;;;;;;;1.73;1.43;;;;;;;4.73;100.00;152578.41;4964874;28;20440;-88
2023/02/03 05:51:27;;;;;;;1.90;1.30;;;;;;;4.72;100.00;152575.81;4952023;28;20463;-88
2023/02/03 05:53:53;;;;;;;2.73;1.30;;;;;;;4.76;100.00;152584.84;4956954;28;20528;-89
2023/02/03 05:56:20;;;;;;;2.10;1.27;;;;;;;4.78;100.00;152590.00;4964736;28;20899;-88
2023/02/03 05:58:47;;;;;;;1.63;1.10;;;;;;;4.75;100.00;152583.56;4966526;28;20822;-88
2023/02/03 06:01:15;;;;;;;1.80;1.20;;;;;;;4.75;100.00;152582.25;4952853;28;20808;-88
2023/02/03 06:03:42;;;;;;;1.50;1.20;;;;;;;4.76;100.00;152584.84;4969662;28;20841;-88
2023/02/03 06:06:09;;;;;;;2.70;1.50;;;;;;;4.74;100.00;152580.97;4984102;28;20486;-88
2023/02/03 06:08:37;;;;;;;2.10;1.27;;;;;;;4.75;100.00;152583.56;4968973;28;20534;-88
2023/02/03 06:11:04;;;;;;;2.30;1.50;;;;;;;4.78;100.00;152591.28;4970576;28;20545;-88
2023/02/03 06:13:30;;;;;;;1.70;1.30;;;;;;;4.78;100.00;152591.28;4964280;28;20464;-88
2023/02/03 06:15:57;;;;;;;1.63;0.90;;;;;;;4.78;100.00;152591.28;4984977;28;20464;-88
2023/02/03 06:18:24;;;;;;;1.80;1.00;;;;;;;4.78;100.00;152591.28;4968717;28;20458;-88
2023/02/03 06:20:51;;;;;;;1.70;1.10;;;;;;;4.80;100.00;152595.13;4952755;28;21040;-87
2023/02/03 06:23:17;;;;;;;1.57;1.17;;;;;;;4.78;100.00;152591.28;4966567;28;20529;-88
2023/02/03 06:25:47;;;;;;;1.73;1.57;;;;;;;4.75;100.00;152583.56;4968944;28;20469;-88
2023/02/03 06:28:15;;;;;;;2.10;1.73;;;;;;;4.75;100.00;152583.56;4986432;28;20456;-88
2023/02/03 06:30:41;;;;;;;1.57;1.40;;;;;;;4.76;100.00;152586.16;4968504;28;21012;-88
2023/02/03 06:33:08;;;;;;;2.90;1.37;;;;;;;4.81;100.00;152599.03;4968244;28;20529;-88
2023/02/03 06:35:35;;;;;;;1.40;1.23;;;;;;;4.79;100.00;152593.84;4969985;28;20454;-88
2023/02/03 06:38:02;;;;;;;1.90;1.13;;;;;;;4.78;100.00;152591.28;4961905;28;20473;-88
2023/02/03 06:40:28;;;;;;;2.20;1.10;;;;;;;4.81;100.00;152599.03;4950524;28;20465;-88
2023/02/03 06:42:56;;;;;;;2.07;1.70;;;;;;;4.76;100.00;152586.16;4967179;28;20454;-87
2023/02/03 06:45:23;;;;;;;2.20;1.30;;;;;;;4.78;100.00;152591.28;4989342;28;20872;-88
2023/02/03 06:47:50;;;;;;;2.20;1.73;;;;;;;4.74;100.00;152580.97;4955654;28;20478;-88
2023/02/03 06:50:17;;;;;;;1.90;1.40;;;;;;;4.75;100.00;152583.56;4968531;28;20464;-88
2023/02/03 06:52:44;;;;;;;1.30;1.20;;;;;;;4.77;100.00;152588.69;4969523;28;20457;-88
2023/02/03 06:55:10;;;;;;;1.40;1.20;;;;;;;4.80;100.00;152595.13;4961425;28;20533;-88
2023/02/03 06:57:43;;;;;;;2.53;1.30;;;;;;;4.75;100.00;152583.56;4962247;28;20509;-87
2023/02/03 07:00:13;;;;;;;1.80;1.50;;;;;;;4.73;100.00;152578.41;4951368;28;20497;-87
2023/02/03 07:02:40;;;;;;;1.90;1.63;;;;;;;4.78;100.00;152590.00;4966547;28;20454;-88
2023/02/03 07:05:07;;;;;;;2.17;1.37;;;;;;;4.78;100.00;152590.00;4969898;28;20454;-87
2023/02/03 07:07:33;;;;;;;2.13;1.50;;;;;;;4.71;100.00;152573.22;4949620;28;20471;-88
2023/02/03 07:10:00;;;;;;;2.90;1.73;;;;;;;4.71;100.00;152573.22;4968717;28;20492;-87
2023/02/03 07:12:27;;;;;;;2.80;1.27;;;;;;;4.71;100.00;152573.22;4970001;28;20521;-87
2023/02/03 07:14:53;;;;;;;2.47;1.50;;;;;;;4.68;100.00;152565.53;4952433;28;20457;-88
2023/02/03 07:17:22;;;;;;;1.60;1.30;;;;;;;4.66;100.00;152560.34;4950715;28;20458;-87
2023/02/03 07:19:49;;;;;;;1.70;1.33;;;;;;;4.69;100.00;152568.06;4983603;28;20493;-88
2023/02/03 07:22:15;;;;;;;4.27;1.43;;;;;;;4.71;100.00;152573.22;4968484;28;20855;-87
2023/02/03 07:24:42;;;;;;;2.60;1.40;;;;;;;4.68;100.00;152565.53;4969424;28;20466;-87
2023/02/03 07:27:09;;;;;;;2.07;1.57;;;;;;;4.73;100.00;152578.41;4951611;28;20972;-88
2023/02/03 07:29:35;;;;;;;1.37;1.00;;;;;;;4.74;100.00;152579.66;4967764;28;20538;-88
2023/02/03 07:32:02;;;;;;;2.63;1.40;;;;;;;4.73;100.00;152578.41;4961026;28;20999;-87
2023/02/03 07:34:30;;;;;;;1.40;1.17;;;;;;;4.72;100.00;152575.81;4950297;28;20968;-87
2023/02/03 07:36:57;;;;;;;2.50;1.47;;;;;;;4.74;100.00;152580.97;4980008;28;20454;-88
2023/02/03 07:39:23;;;;;;;2.47;1.47;;;;;;;4.76;100.00;152584.84;4965926;28;20537;-87
2023/02/03 07:41:50;;;;;;;1.80;1.40;;;;;;;4.73;100.00;152578.41;4950977;28;20457;-87
2023/02/03 07:44:17;;;;;;;2.00;1.70;;;;;;;4.76;100.00;152584.84;4962114;28;20501;-89
2023/02/03 07:46:44;;;;;;;2.67;1.47;;;;;;;4.77;100.00;152587.41;4964726;28;20484;-88
2023/02/03 07:49:11;;;;;;;3.20;1.80;;;;;;;4.73;100.00;152578.41;4954028;28;20457;-88
2023/02/03 07:51:39;;;;;;;2.00;1.80;;;;;;;4.72;100.00;152575.81;4969369;28;20537;-88
2023/02/03 07:54:06;;;;;;;2.53;1.63;;;;;;;4.74;100.00;152580.97;4983646;28;20957;-87
2023/02/03 07:56:32;;;;;;;2.20;1.70;;;;;;;4.73;100.00;152578.41;4968643;28;20500;-87
2023/02/03 07:59:00;;;;;;;2.97;1.90;;;;;;;4.78;100.00;152591.28;4948650;28;20882;-87
2023/02/03 08:01:27;;;;;;;2.20;2.00;;;;;;;4.75;100.00;152583.56;4962962;28;20464;-87
2023/02/03 08:03:53;;;;;;;3.50;2.00;;;;;;;4.78;100.00;152591.28;4947776;28;20469;-87
2023/02/03 08:06:20;;;;;;;2.80;2.20;;;;;;;4.81;100.00;152599.03;4963578;28;21047;-87
2023/02/03 08:08:48;;;;;;;2.63;2.27;;;;;;;4.83;100.00;152604.16;4963297;28;20461;-87
2023/02/03 08:11:15;;;;;;;3.27;2.40;;;;;;;4.85;100.00;152609.31;4967231;28;20484;-87
2023/02/03 08:13:41;;;;;;;3.80;2.43;;;;;;;4.82;100.00;152600.28;4965531;28;20556;-87
2023/02/03 08:16:08;;;;;;;3.43;2.80;;;;;;;4.88;100.00;152617.06;4965770;28;20456;-87
2023/02/03 08:18:35;;;;;;;2.70;2.27;;;;;;;4.93;100.00;152628.63;4949905;28;20455;-87
2023/02/03 08:21:03;;;;;;;2.77;2.00;;;;;;;4.95;100.00;152632.53;4968285;28;20443;-87
2023/02/03 08:23:30;;;;;;;3.60;2.33;;;;;;;4.95;100.00;152632.53;4965456;28;20453;-77
2023/02/03 08:25:58;;;;;;;2.40;1.93;;;;;;;4.92;100.00;152627.34;4963974;28;20644;-77
2023/02/03 08:28:25;;;;;;;3.27;2.20;;;;;;;4.91;100.00;152623.50;4965920;28;20483;-77
2023/02/03 08:30:51;;;;;;;3.67;2.70;;;;;;;4.96;100.00;152636.38;4963217;28;20593;-77
2023/02/03 08:33:18;;;;;;;3.27;2.30;;;;;;;5.00;100.00;152645.41;4943178;28;20451;-77
2023/02/03 08:35:46;;;;;;;3.47;2.50;;;;;;;5.02;100.00;152651.84;4966006;28;20509;-77
2023/02/03 08:38:13;;;;;;;3.50;2.50;;;;;;;5.03;100.00;152654.41;4964414;28;20459;-77
2023/02/03 08:40:40;;;;;;;3.00;2.47;;;;;;;5.06;100.00;152660.84;4966312;28;20540;-77
2023/02/03 08:43:08;;;;;;;5.90;2.67;;;;;;;5.06;100.00;152662.16;4978708;28;20462;-77
2023/02/03 08:45:35;;;;;;;3.40;3.10;;;;;;;5.06;100.00;152660.84;4950316;28;20461;-77
2023/02/03 08:48:01;;;;;;;2.83;2.40;;;;;;;5.08;100.00;152666.03;4965105;28;20578;-77
2023/02/03 08:50:28;;;;;;;2.30;2.10;;;;;;;5.14;100.00;152681.47;4968482;28;20520;-77
2023/02/03 08:52:54;;;;;;;3.00;2.70;;;;;;;5.18;100.00;152691.81;4967633;28;20805;-77
2023/02/03 08:55:21;;;;;;;2.93;2.13;;;;;;;5.26;100.00;152712.44;4967181;28;20541;-77
2023/02/03 08:57:48;;;;;;;2.87;2.67;;;;;;;5.31;100.00;152725.31;4967160;28;20493;-77
2023/02/03 09:00:17;;;;;;;4.47;3.20;;;;;;;5.34;100.00;152734.38;4968761;28;20450;-77
2023/02/03 09:02:43;;;;;;;6.00;3.07;;;;;;;5.32;100.00;152729.16;4981136;28;20486;-77
2023/02/03 09:05:11;;;;;;;3.20;2.50;;;;;;;5.33;100.00;152731.78;4966278;28;21060;-77
2023/02/03 09:07:38;;;;;;;4.27;2.70;;;;;;;5.38;100.00;152743.34;4959520;28;20482;-77
2023/02/03 09:10:05;;;;;;;3.67;2.60;;;;;;;5.39;100.00;152747.25;4968662;28;20958;-77
2023/02/03 09:12:31;;;;;;;4.47;2.90;;;;;;;5.45;100.00;152761.44;4950627;28;20805;-77
2023/02/03 09:14:58;;;;;;;2.97;2.57;;;;;;;5.47;100.00;152767.88;4983233;28;20576;-77
2023/02/03 09:17:26;;;;;;;3.50;2.37;;;;;;;5.48;100.00;152770.44;4950319;28;20467;-77
2023/02/03 09:19:53;;;;;;;3.37;3.07;;;;;;;5.50;100.00;152774.31;4968329;28;20447;-77
2023/02/03 09:22:20;;;;;;;3.00;2.40;;;;;;;5.54;100.00;152784.63;4948461;28;20454;-77
2023/02/03 09:24:49;;;;;;;3.57;2.77;;;;;;;5.59;100.00;152797.50;4969823;28;20534;-77
2023/02/03 09:27:16;;;;;;;2.67;2.40;;;;;;;5.72;100.00;152831.03;4953682;28;20993;-77
2023/02/03 09:29:42;;;;;;;3.10;2.20;;;;;;;5.79;100.00;152849.13;4986699;28;20466;-77
2023/02/03 09:32:09;;;;;;;2.90;2.33;;;;;;;5.80;100.00;152851.66;4953683;28;20459;-77
2023/02/03 09:34:38;;;;;;;3.33;2.00;;;;;;;5.87;100.00;152869.81;4970751;28;20506;-77
2023/02/03 09:37:05;;;;;;;2.80;2.37;;;;;;;5.86;100.00;152867.22;4970888;28;20451;-77
2023/02/03 09:39:32;;;;;;;2.63;2.37;;;;;;;5.87;100.00;152869.81;4953651;28;20496;-77
2023/02/03 09:42:11;;;;;;;3.20;1.90;;;;;;;5.88;100.00;152872.34;4968341;28;20467;-77
2023/02/03 09:44:42;;;;;;;4.87;2.10;;;;;;;5.86;100.00;152867.22;4971059;28;20460;-77
2023/02/03 09:47:12;;;;;;;2.20;2.00;;;;;;;5.86;100.00;152867.22;4952873;28;21004;-77
2023/02/03 09:49:42;;;;;;;2.17;1.97;;;;;;;5.91;100.00;152878.81;4986075;28;20509;-78
2023/02/03 09:52:13;;;;;;;3.20;2.37;;;;;;;5.93;100.00;152884.00;4968946;28;20518;-77
2023/02/03 09:54:43;;;;;;;2.37;2.17;;;;;;;5.87;100.00;152869.81;4962725;28;20456;-78
2023/02/03 09:57:15;;;;;;;2.57;1.90;;;;;;;5.85;100.00;152864.63;4969311;28;20478;-77
2023/02/03 09:59:42;;;;;;;2.03;1.60;;;;;;;5.87;100.00;152869.81;4952979;28;20548;-77
2023/02/03 10:02:21;;;;;;;3.37;2.70;;;;;;;5.90;100.00;152876.25;4952721;28;20462;-77
2023/02/03 10:04:54;;;;;;;3.80;2.57;;;;;;;5.93;100.00;152884.00;4969989;28;20447;-78
2023/02/03 10:07:26;;;;;;;3.10;2.20;;;;;;;6.00;100.00;152902.03;4969358;28;20566;-78
2023/02/03 10:09:58;;;;;;;2.80;2.20;;;;;;;6.02;100.00;152908.50;4952147;28;20453;-77
2023/02/03 10:12:36;;;;;;;3.87;2.50;;;;;;;6.01;100.00;152905.88;4966927;28;20974;-78
2023/02/03 10:15:18;;;;;;;6.67;2.30;;;;;;;6.07;100.00;152920.09;4967424;28;20447;-77
2023/02/03 10:17:48;;;;;;;3.70;2.43;;;;;;;6.07;100.00;152921.38;4969041;28;20447;-78
2023/02/03 10:20:21;;;;;;;2.53;2.33;;;;;;;6.07;100.00;152921.38;4970011;28;20538;-77
2023/02/03 10:22:50;;;;;;;3.07;2.53;;;;;;;6.13;100.00;152936.88;4952924;28;20455;-78
2023/02/03 10:25:23;;;;;;;3.40;3.10;;;;;;;6.14;100.00;152939.44;4944653;28;20778;-77
2023/02/03 10:27:51;;;;;;;5.00;2.40;;;;;;;6.17;100.00;152945.88;4951442;28;20537;-78
2023/02/03 10:30:20;;;;;;;2.97;2.20;;;;;;;6.16;100.00;152942.03;4969381;28;20882;-78
2023/02/03 10:32:49;;;;;;;2.47;2.27;;;;;;;6.24;100.00;152962.66;4951725;28;20451;-78
2023/02/03 10:35:17;;;;;;;2.00;1.57;;;;;;;6.31;100.00;152980.72;4951085;28;20454;-78
2023/02/03 10:37:47;;;;;;;2.10;1.63;;;;;;;6.33;100.00;152985.91;4984576;28;20455;-78
2023/02/03 10:40:15;;;;;;;2.33;1.47;;;;;;;6.37;100.00;152997.53;4960863;28;20815;-78
2023/02/03 10:45:27;;;;;;;1.67;1.20;;;;;;;6.38;100.00;152998.81;4951732;28;20495;-77
2023/02/03 10:47:55;;;;;;;2.20;1.40;;;;;;;6.37;100.00;152996.22;4952451;28;20478;-77
2023/02/03 10:50:30;;;;;;;1.30;1.20;;;;;;;6.43;100.00;153011.72;4968999;28;20595;-77
2023/02/03 10:53:20;;;;;;;1.67;1.23;;;;;;;6.47;100.00;153022.00;4952403;28;20459;-77
2023/02/03 10:55:49;;;;;;;1.90;1.20;;;;;;;6.50;100.00;153031.06;4968572;28;20477;-76
2023/02/03 10:58:19;;;;;;;1.37;0.80;;;;;;;6.54;100.00;153040.13;4968293;28;20465;-76
2023/02/03 11:00:46;;;;;;;2.00;1.20;;;;;;;6.50;100.00;153029.75;4952526;28;20455;-76
2023/02/03 11:03:22;;;;;;;2.40;1.30;;;;;;;6.55;100.00;153043.97;4969026;28;20946;-78
2023/02/03 11:06:03;;;;;;;2.60;1.30;;;;;;;6.64;100.00;153065.91;4968580;28;20534;-78
2023/02/03 11:08:31;;;;;;;1.53;1.07;;;;;;;6.77;100.00;153098.19;4967901;28;20474;-78
2023/02/03 11:11:02;;;;;;;2.27;1.20;;;;;;;6.83;100.00;153114.94;4970496;28;20442;-78
2023/02/03 11:13:29;;;;;;;1.90;1.27;;;;;;;6.92;100.00;153138.19;4951358;28;20578;-78
2023/02/03 11:15:58;;;;;;;3.40;1.47;;;;;;;6.93;100.00;153139.47;4968427;28;20446;-78
2023/02/03 11:18:43;;;;;;;2.40;1.20;;;;;;;6.88;100.00;153127.88;4969526;28;20465;-78
2023/02/03 11:21:14;;;;;;;1.53;1.23;;;;;;;6.86;100.00;153122.69;4968753;28;20457;-78
2023/02/03 11:23:56;;;;;;;2.43;1.03;;;;;;;6.87;100.00;153123.97;4951534;28;20463;-78
2023/02/03 11:26:26;;;;;;;1.33;1.07;;;;;;;6.80;100.00;153107.22;4966616;28;20817;-78
2023/02/03 11:28:54;;;;;;;1.17;1.07;;;;;;;6.77;100.00;153098.19;4968095;28;20522;-78
2023/02/03 11:31:24;;;;;;;1.63;0.93;;;;;;;6.77;100.00;153099.47;4966736;28;20494;-77
2023/02/03 11:33:54;;;;;;;1.77;1.20;;;;;;;6.75;100.00;153095.56;4934861;28;20453;-77
2023/02/03 11:36:22;;;;;;;1.77;1.10;;;;;;;6.72;100.00;153087.81;4983928;28;20470;-77